Time;durP1;ratioP1;P1;durP2;ratioP2;P2;SDS_P1;SDS_P2;PMS_P1;PMS_P2;Temp;Humidity;BMP_temperature;BMP_pressure;BME280_temperature;BME280_humidity;BME280_pressure;Samples;Min_cycle;Max_cycle;Signal;HPM_P1;HPM_P2
2021/07/07 00:02:26;;;;;;;2.17;0.90;;;18.50;98.30;;;;;;5104454;28;20295;-51
2021/07/07 00:04:53;;;;;;;1.20;0.60;;;18.40;98.30;;;;;;5103450;27;20193;-57
2021/07/07 00:07:21;;;;;;;2.30;1.00;;;18.40;98.40;;;;;;5091059;28;21775;-47
2021/07/07 00:09:48;;;;;;;2.97;1.37;;;18.40;98.40;;;;;;5103178;28;20220;-53
2021/07/07 00:12:15;;;;;;;2.37;0.70;;;18.30;98.50;;;;;;5103490;28;20217;-48
2021/07/07 00:14:42;;;;;;;1.07;0.80;;;18.30;98.60;;;;;;5092484;28;20753;-55
2021/07/07 00:17:08;;;;;;;2.07;1.07;;;18.20;98.80;;;;;;5102663;28;20487;-50
2021/07/07 00:19:35;;;;;;;1.47;0.60;;;18.20;99.00;;;;;;5105340;28;20198;-52
2021/07/07 00:22:02;;;;;;;1.80;0.60;;;18.10;99.10;;;;;;5100981;28;20412;-52
2021/07/07 00:24:30;;;;;;;1.17;0.60;;;18.00;99.30;;;;;;5091270;28;20215;-50
2021/07/07 00:26:56;;;;;;;1.77;0.83;;;18.00;99.50;;;;;;5100290;28;20197;-55
2021/07/07 00:29:23;;;;;;;0.80;0.70;;;18.00;99.60;;;;;;5092005;28;20641;-51
2021/07/07 00:31:49;;;;;;;3.23;0.87;;;17.90;99.60;;;;;;5103296;28;20581;-53
2021/07/07 00:34:16;;;;;;;2.30;0.70;;;17.90;99.70;;;;;;5103795;28;20220;-46
2021/07/07 00:36:43;;;;;;;1.63;0.87;;;17.90;99.90;;;;;;5104122;28;20694;-55
2021/07/07 00:39:09;;;;;;;2.90;0.80;;;17.80;99.90;;;;;;5085039;28;20719;-46
2021/07/07 00:41:37;;;;;;;3.10;1.00;;;17.80;99.90;;;;;;5104039;28;20221;-47
2021/07/07 00:44:04;;;;;;;1.80;0.70;;;17.70;99.90;;;;;;5100190;28;20185;-48
2021/07/07 00:46:31;;;;;;;2.40;0.87;;;17.70;99.90;;;;;;5093335;28;20817;-48
2021/07/07 00:48:58;;;;;;;3.70;1.20;;;17.70;99.90;;;;;;5097337;28;20662;-56
2021/07/07 00:51:24;;;;;;;3.70;1.17;;;17.70;99.90;;;;;;5104566;28;20196;-46
2021/07/07 00:53:52;;;;;;;1.53;0.60;;;17.70;99.90;;;;;;5090240;28;20221;-55
2021/07/07 00:56:19;;;;;;;2.13;1.10;;;17.60;99.90;;;;;;5099418;28;20754;-46
2021/07/07 00:58:52;;;;;;;5.23;1.33;;;17.60;99.90;;;;;;5103821;28;20204;-56
2021/07/07 01:01:19;;;;;;;4.20;1.10;;;17.60;99.90;;;;;;5093289;28;20378;-46
2021/07/07 01:03:46;;;;;;;2.77;0.90;;;17.60;99.90;;;;;;5101725;28;20202;-53
2021/07/07 01:06:12;;;;;;;1.40;0.60;;;17.50;99.90;;;;;;5101627;28;20290;-46
2021/07/07 01:08:39;;;;;;;2.90;1.10;;;17.50;99.90;;;;;;5105106;28;20204;-46
2021/07/07 01:11:05;;;;;;;1.80;0.70;;;17.50;99.90;;;;;;5086590;28;20480;-49
2021/07/07 01:13:32;;;;;;;4.00;0.97;;;17.50;99.90;;;;;;5104476;28;20225;-49
2021/07/07 01:16:04;;;;;;;2.50;1.23;;;17.40;99.90;;;;;;5084755;28;20194;-54
2021/07/07 01:18:30;;;;;;;1.90;0.70;;;17.40;99.90;;;;;;5103771;28;20209;-47
2021/07/07 01:20:57;;;;;;;1.30;0.80;;;17.30;99.90;;;;;;5100755;28;20204;-56
2021/07/07 01:23:25;;;;;;;2.33;0.70;;;17.30;99.90;;;;;;5104234;28;20578;-46
2021/07/07 01:25:52;;;;;;;2.70;1.00;;;17.30;99.90;;;;;;5088455;28;20570;-54
2021/07/07 01:28:20;;;;;;;3.50;0.70;;;17.20;99.90;;;;;;5102804;28;20192;-50
2021/07/07 01:30:47;;;;;;;2.07;1.20;;;17.20;99.90;;;;;;5100444;28;20208;-57
2021/07/07 01:33:13;;;;;;;2.10;0.80;;;17.20;99.90;;;;;;5093017;28;20312;-49
2021/07/07 01:35:40;;;;;;;1.40;0.90;;;17.20;99.90;;;;;;5103929;28;20204;-51
2021/07/07 01:38:07;;;;;;;0.80;0.60;;;17.20;99.90;;;;;;5099812;28;20816;-51
2021/07/07 01:40:35;;;;;;;2.83;0.90;;;17.10;99.90;;;;;;5090772;28;20205;-57
2021/07/07 01:43:01;;;;;;;2.53;0.90;;;17.10;99.90;;;;;;5096458;28;20217;-47
2021/07/07 01:45:28;;;;;;;2.07;1.17;;;17.10;99.90;;;;;;5101605;28;20288;-54
2021/07/07 01:47:55;;;;;;;3.17;1.10;;;17.10;99.90;;;;;;5087265;28;20287;-50
2021/07/07 01:50:26;;;;;;;2.63;0.97;;;17.10;99.90;;;;;;5097607;28;20580;-47
2021/07/07 01:52:55;;;;;;;5.87;2.00;;;17.00;99.90;;;;;;5099437;28;20881;-46
2021/07/07 01:55:25;;;;;;;3.23;0.90;;;17.00;99.90;;;;;;5100729;28;20197;-46
2021/07/07 01:57:53;;;;;;;1.10;0.80;;;16.90;99.90;;;;;;5081106;28;20823;-49
2021/07/07 02:00:23;;;;;;;2.90;0.90;;;16.90;99.90;;;;;;5103006;28;20702;-48
2021/07/07 02:02:51;;;;;;;3.40;0.97;;;16.80;99.90;;;;;;5084612;28;20642;-50
2021/07/07 02:05:19;;;;;;;4.43;1.10;;;16.80;99.90;;;;;;5103142;28;20189;-47
2021/07/07 02:07:47;;;;;;;3.27;1.07;;;16.70;99.90;;;;;;5099041;28;20384;-48
2021/07/07 02:10:15;;;;;;;3.30;1.03;;;16.70;99.90;;;;;;5103380;28;20250;-49
2021/07/07 02:12:43;;;;;;;2.97;0.80;;;16.60;99.90;;;;;;5085367;28;20229;-55
2021/07/07 02:15:14;;;;;;;3.00;1.33;;;16.50;99.90;;;;;;5102273;28;20634;-47
2021/07/07 02:17:41;;;;;;;4.63;1.13;;;16.50;99.90;;;;;;5089815;28;20197;-55
2021/07/07 02:20:10;;;;;;;3.00;0.97;;;16.50;99.90;;;;;;5101316;28;20195;-52
2021/07/07 02:22:38;;;;;;;2.30;1.03;;;16.40;99.90;;;;;;5100580;28;20759;-53
2021/07/07 02:25:05;;;;;;;1.43;0.70;;;16.40;99.90;;;;;;5099937;28;20189;-49
2021/07/07 02:27:32;;;;;;;5.17;1.00;;;16.40;99.90;;;;;;5095695;28;20193;-55
2021/07/07 02:29:59;;;;;;;2.47;0.90;;;16.30;99.90;;;;;;5091142;28;20201;-51
2021/07/07 02:32:27;;;;;;;1.93;1.30;;;16.30;99.90;;;;;;5102498;28;20220;-55
2021/07/07 02:34:54;;;;;;;3.90;1.30;;;16.20;99.90;;;;;;5093056;28;20450;-47
2021/07/07 02:37:21;;;;;;;1.00;0.80;;;16.20;99.90;;;;;;5102917;28;20201;-50
2021/07/07 02:39:48;;;;;;;3.63;0.97;;;16.10;99.90;;;;;;5097583;28;20248;-47
2021/07/07 02:42:16;;;;;;;2.30;1.10;;;16.00;99.90;;;;;;5101397;28;20609;-47
2021/07/07 02:44:43;;;;;;;3.90;1.00;;;15.90;99.90;;;;;;5085366;28;20201;-55
2021/07/07 02:47:09;;;;;;;1.67;1.10;;;15.90;99.90;;;;;;5100874;28;20571;-47
2021/07/07 02:49:37;;;;;;;3.27;1.27;;;15.80;99.90;;;;;;5092024;28;20199;-55
2021/07/07 02:52:05;;;;;;;1.80;1.00;;;15.80;99.90;;;;;;5101852;28;20224;-47
2021/07/07 02:54:31;;;;;;;1.87;1.30;;;15.70;99.90;;;;;;5101504;28;20213;-56
2021/07/07 02:56:58;;;;;;;3.10;1.10;;;15.70;99.90;;;;;;5101195;28;20334;-49
2021/07/07 02:59:25;;;;;;;2.10;1.20;;;15.70;99.90;;;;;;5102407;28;20215;-56
2021/07/07 03:01:51;;;;;;;2.43;1.40;;;15.70;99.90;;;;;;5086630;28;20221;-49
2021/07/07 03:04:18;;;;;;;1.83;1.13;;;15.70;99.90;;;;;;5103697;28;20630;-49
2021/07/07 03:06:46;;;;;;;3.40;1.17;;;15.80;99.90;;;;;;5092516;28;20901;-49
2021/07/07 03:09:13;;;;;;;3.53;1.57;;;15.70;99.90;;;;;;5107137;28;20197;-47
2021/07/07 03:11:39;;;;;;;2.37;1.00;;;15.80;99.90;;;;;;5103934;28;20252;-55
2021/07/07 03:14:06;;;;;;;3.20;1.20;;;15.70;99.90;;;;;;5106157;28;20217;-48
2021/07/07 03:16:33;;;;;;;1.73;1.07;;;15.70;99.90;;;;;;5092067;28;20280;-55
2021/07/07 03:19:00;;;;;;;1.60;1.10;;;15.70;99.90;;;;;;5104297;28;20216;-49
2021/07/07 03:21:26;;;;;;;1.60;1.07;;;15.60;99.90;;;;;;5097235;28;20213;-54
2021/07/07 03:23:54;;;;;;;4.53;1.13;;;15.60;99.90;;;;;;5103833;28;20435;-47
2021/07/07 03:26:21;;;;;;;1.43;1.33;;;15.60;99.90;;;;;;5106863;28;20201;-47
2021/07/07 03:28:48;;;;;;;1.63;1.30;;;15.60;99.90;;;;;;5102001;28;20304;-49
2021/07/07 03:31:15;;;;;;;1.43;0.90;;;15.70;99.90;;;;;;5106798;28;20741;-47
2021/07/07 03:33:41;;;;;;;2.53;1.23;;;15.70;99.90;;;;;;5083585;28;20205;-55
2021/07/07 03:36:08;;;;;;;2.30;1.07;;;15.70;99.90;;;;;;5096792;28;20671;-52
2021/07/07 03:38:35;;;;;;;2.17;1.23;;;15.80;99.90;;;;;;5104280;28;20674;-55
2021/07/07 03:41:03;;;;;;;1.10;1.00;;;15.80;99.90;;;;;;5105047;28;20207;-47
2021/07/07 03:43:29;;;;;;;2.57;1.00;;;15.80;99.90;;;;;;5105331;28;20316;-54
2021/07/07 03:45:56;;;;;;;2.33;0.90;;;15.90;99.90;;;;;;5103424;28;20880;-47
2021/07/07 03:48:23;;;;;;;2.17;1.33;;;15.90;99.90;;;;;;5089911;28;20209;-48
2021/07/07 03:50:49;;;;;;;7.53;1.20;;;15.90;99.90;;;;;;5092889;28;20449;-50
2021/07/07 03:53:16;;;;;;;1.90;1.20;;;15.90;99.90;;;;;;5106283;28;20224;-50
2021/07/07 03:55:42;;;;;;;2.33;1.20;;;15.80;99.90;;;;;;5101909;28;20232;-54
2021/07/07 03:58:11;;;;;;;3.00;1.30;;;15.70;99.90;;;;;;5106376;28;20193;-47
2021/07/07 04:00:37;;;;;;;3.13;1.27;;;15.70;99.90;;;;;;5102693;28;20647;-55
2021/07/07 04:03:06;;;;;;;3.60;1.23;;;15.70;99.90;;;;;;5104432;28;20217;-49
2021/07/07 04:05:33;;;;;;;4.57;1.37;;;15.70;99.90;;;;;;5086809;28;20233;-56
2021/07/07 04:08:00;;;;;;;1.47;1.37;;;15.60;99.90;;;;;;5099450;28;20210;-49
2021/07/07 04:10:28;;;;;;;5.10;1.30;;;15.60;99.90;;;;;;5105075;28;20220;-57
2021/07/07 04:12:54;;;;;;;1.20;1.10;;;15.60;99.90;;;;;;5102879;28;20224;-47
2021/07/07 04:15:23;;;;;;;2.83;1.30;;;15.60;99.90;;;;;;5105724;28;20225;-51
2021/07/07 04:17:50;;;;;;;2.03;1.17;;;15.60;99.90;;;;;;5096635;28;20302;-47
2021/07/07 04:20:19;;;;;;;2.80;1.20;;;15.60;99.90;;;;;;5091757;28;20212;-48
2021/07/07 04:22:46;;;;;;;1.80;1.30;;;15.50;99.90;;;;;;5090438;28;20213;-49
2021/07/07 04:25:14;;;;;;;3.07;1.40;;;15.60;99.90;;;;;;5105775;28;20189;-47
2021/07/07 04:27:42;;;;;;;1.83;1.30;;;15.60;99.90;;;;;;5101720;28;20742;-55
2021/07/07 04:30:11;;;;;;;2.60;1.30;;;15.60;99.90;;;;;;5105289;28;20234;-47
2021/07/07 04:32:40;;;;;;;1.40;1.03;;;15.60;99.90;;;;;;5102256;28;20245;-57
2021/07/07 04:35:09;;;;;;;2.90;1.47;;;15.60;99.90;;;;;;5091593;28;20217;-49
2021/07/07 04:37:36;;;;;;;1.33;1.10;;;15.70;99.90;;;;;;5097265;28;20233;-56
2021/07/07 04:40:04;;;;;;;1.40;1.30;;;15.80;99.90;;;;;;5101693;28;20231;-47
2021/07/07 04:42:31;;;;;;;2.83;1.17;;;15.80;99.90;;;;;;5103547;28;20221;-54
2021/07/07 04:44:57;;;;;;;4.07;1.80;;;15.80;99.90;;;;;;5101702;28;20393;-49
2021/07/07 04:47:24;;;;;;;2.13;1.40;;;15.80;99.90;;;;;;5104544;27;20276;-50
2021/07/07 04:49:52;;;;;;;2.03;1.30;;;15.80;99.90;;;;;;5100248;28;20199;-49
2021/07/07 04:52:19;;;;;;;3.97;1.60;;;15.90;99.90;;;;;;5091433;28;20222;-47
2021/07/07 04:54:46;;;;;;;4.03;1.30;;;15.90;99.90;;;;;;5091857;28;20802;-47
2021/07/07 04:57:12;;;;;;;2.83;1.30;;;15.90;99.90;;;;;;5104898;28;20216;-50
2021/07/07 04:59:39;;;;;;;2.00;1.23;;;15.90;99.90;;;;;;5099565;28;20209;-55
2021/07/07 05:02:06;;;;;;;2.43;1.50;;;15.90;99.90;;;;;;5093705;28;20309;-54
2021/07/07 05:04:32;;;;;;;4.10;1.57;;;15.90;99.90;;;;;;5103030;28;20400;-48
2021/07/07 05:07:00;;;;;;;4.47;1.60;;;16.00;99.90;;;;;;5072809;28;20923;-49
2021/07/07 05:09:27;;;;;;;4.00;1.50;;;16.00;99.90;;;;;;5092809;28;20212;-50
2021/07/07 05:11:54;;;;;;;1.93;1.20;;;16.00;99.90;;;;;;5090908;28;20221;-56
2021/07/07 05:14:20;;;;;;;4.97;1.67;;;16.10;99.90;;;;;;5103829;28;20209;-49
2021/07/07 05:16:47;;;;;;;5.90;1.60;;;16.20;99.90;;;;;;5101455;28;20197;-56
2021/07/07 05:19:14;;;;;;;3.10;1.50;;;16.20;99.90;;;;;;5102294;28;20216;-51
2021/07/07 05:21:42;;;;;;;5.27;1.67;;;16.20;99.90;;;;;;5101412;28;20228;-58
2021/07/07 05:24:10;;;;;;;5.63;1.60;;;16.30;99.90;;;;;;5084657;28;22750;-48
2021/07/07 05:26:37;;;;;;;3.53;1.60;;;16.30;99.90;;;;;;5098118;28;20209;-46
2021/07/07 05:29:03;;;;;;;3.00;1.63;;;16.40;99.90;;;;;;5094432;28;20488;-46
2021/07/07 05:31:31;;;;;;;1.73;1.57;;;16.40;99.90;;;;;;5104375;28;20225;-46
2021/07/07 05:33:57;;;;;;;3.43;1.60;;;16.40;99.90;;;;;;5100430;28;20198;-51
2021/07/07 05:36:24;;;;;;;2.63;1.60;;;16.50;99.90;;;;;;5103831;28;20221;-47
2021/07/07 05:38:50;;;;;;;1.87;1.27;;;16.50;99.90;;;;;;5087539;28;20228;-54
2021/07/07 05:41:18;;;;;;;5.87;1.50;;;16.50;99.90;;;;;;5094746;28;20193;-49
2021/07/07 05:43:46;;;;;;;4.80;1.30;;;16.60;99.90;;;;;;5089130;28;20566;-57
2021/07/07 05:46:13;;;;;;;2.47;1.83;;;16.60;99.90;;;;;;5094787;28;20896;-47
2021/07/07 05:48:40;;;;;;;3.47;1.37;;;16.60;99.90;;;;;;5099363;28;20193;-57
2021/07/07 05:51:07;;;;;;;2.87;1.70;;;16.60;99.90;;;;;;5099540;28;20506;-47
2021/07/07 05:53:33;;;;;;;3.93;1.90;;;16.60;99.90;;;;;;5090257;28;20236;-47
2021/07/07 05:56:00;;;;;;;2.67;1.63;;;16.70;99.90;;;;;;5090954;28;20247;-49
2021/07/07 05:58:28;;;;;;;2.47;1.50;;;16.70;99.90;;;;;;5088500;28;20669;-47
2021/07/07 06:00:54;;;;;;;2.77;1.60;;;16.80;99.90;;;;;;5094696;28;20193;-57
2021/07/07 06:03:21;;;;;;;3.43;1.70;;;16.90;99.90;;;;;;5103639;28;20718;-47
2021/07/07 06:05:48;;;;;;;4.57;1.70;;;17.00;99.90;;;;;;5100900;28;20186;-53
2021/07/07 06:08:14;;;;;;;1.67;1.40;;;17.10;99.90;;;;;;5101430;28;20563;-51
2021/07/07 06:10:43;;;;;;;5.20;2.23;;;17.10;99.90;;;;;;5087422;28;20212;-56
2021/07/07 06:13:10;;;;;;;2.80;1.50;;;17.10;99.90;;;;;;5088608;28;20825;-48
2021/07/07 06:15:38;;;;;;;4.60;2.17;;;17.20;99.90;;;;;;5101560;28;20225;-52
2021/07/07 06:18:05;;;;;;;2.80;2.03;;;17.20;99.90;;;;;;5082340;28;20205;-52
2021/07/07 06:20:32;;;;;;;2.17;1.60;;;17.20;99.90;;;;;;5101188;28;20270;-46
2021/07/07 06:22:59;;;;;;;3.13;1.47;;;17.30;99.90;;;;;;5098849;28;20224;-52
2021/07/07 06:25:26;;;;;;;2.67;1.70;;;17.30;99.90;;;;;;5089871;28;20198;-47
2021/07/07 06:27:53;;;;;;;7.80;1.60;;;17.30;99.90;;;;;;5091234;28;20213;-54
2021/07/07 06:30:26;;;;;;;4.23;1.60;;;17.30;99.90;;;;;;5092222;28;20224;-46
2021/07/07 06:32:55;;;;;;;3.67;1.37;;;17.40;99.90;;;;;;5093413;28;20225;-55
2021/07/07 06:35:22;;;;;;;3.90;2.30;;;17.40;99.90;;;;;;5099590;28;20278;-50
2021/07/07 06:37:50;;;;;;;1.37;1.13;;;17.50;99.90;;;;;;5100031;28;20193;-51
2021/07/07 06:40:17;;;;;;;2.23;1.30;;;17.60;99.90;;;;;;5088780;28;20289;-45
2021/07/07 06:42:45;;;;;;;5.80;2.67;;;17.70;99.90;;;;;;5080112;28;20220;-48
2021/07/07 06:45:12;;;;;;;5.10;1.70;;;17.80;99.90;;;;;;5098803;28;20197;-46
2021/07/07 06:47:40;;;;;;;2.17;1.30;;;17.90;99.90;;;;;;5099254;28;20204;-49
2021/07/07 06:50:09;;;;;;;2.07;1.20;;;18.00;99.90;;;;;;5098118;28;20370;-45
2021/07/07 06:52:37;;;;;;;3.00;1.07;;;18.10;99.90;;;;;;5101203;28;20228;-45
2021/07/07 06:55:04;;;;;;;2.63;1.50;;;18.20;99.90;;;;;;5102195;28;20216;-46
2021/07/07 06:57:34;;;;;;;5.50;2.97;;;18.30;99.90;;;;;;5086798;28;20201;-46
2021/07/07 07:00:02;;;;;;;3.13;1.67;;;18.40;99.90;;;;;;5090325;28;20919;-51
2021/07/07 07:02:30;;;;;;;2.03;1.23;;;18.50;99.90;;;;;;5097488;28;20315;-48
2021/07/07 07:04:57;;;;;;;3.77;1.70;;;18.60;99.90;;;;;;5093275;28;20193;-51
2021/07/07 07:07:25;;;;;;;2.90;1.23;;;18.60;99.90;;;;;;5102836;28;20692;-51
2021/07/07 07:09:52;;;;;;;7.23;1.43;;;18.60;99.90;;;;;;5093844;28;20591;-47
2021/07/07 07:12:18;;;;;;;2.37;2.00;;;18.60;99.90;;;;;;5088822;28;20232;-51
2021/07/07 07:14:45;;;;;;;2.13;1.10;;;18.60;99.90;;;;;;5090294;28;20209;-52
2021/07/07 07:17:11;;;;;;;5.60;1.27;;;18.60;99.90;;;;;;5098277;28;20562;-50
2021/07/07 07:19:38;;;;;;;4.13;1.67;;;18.60;99.90;;;;;;5092090;28;20202;-53
2021/07/07 07:22:05;;;;;;;3.77;1.60;;;18.70;99.90;;;;;;5098119;28;21023;-47
2021/07/07 07:24:33;;;;;;;2.37;1.23;;;18.70;99.90;;;;;;5101269;28;20565;-50
2021/07/07 07:27:00;;;;;;;3.23;2.20;;;18.70;99.90;;;;;;5089906;28;20402;-46
2021/07/07 07:29:26;;;;;;;2.53;1.10;;;18.80;99.90;;;;;;5086378;28;20221;-52
2021/07/07 07:31:53;;;;;;;3.43;1.40;;;18.80;99.90;;;;;;5097971;28;20220;-46
2021/07/07 07:34:19;;;;;;;2.67;0.93;;;18.90;99.90;;;;;;5098479;28;20202;-46
2021/07/07 07:36:47;;;;;;;1.40;1.00;;;18.90;99.90;;;;;;5094325;28;20221;-53
2021/07/07 07:39:20;;;;;;;2.27;1.33;;;18.90;99.90;;;;;;5095283;28;20225;-48
2021/07/07 07:41:48;;;;;;;1.57;0.83;;;18.90;99.90;;;;;;5096409;28;20766;-53
2021/07/07 07:44:15;;;;;;;9.33;1.17;;;19.00;99.90;;;;;;5088144;28;20202;-48
2021/07/07 07:46:42;;;;;;;1.60;1.13;;;19.10;99.90;;;;;;5098642;28;20197;-50
2021/07/07 07:49:10;;;;;;;2.03;0.90;;;19.20;99.90;;;;;;5098663;28;20416;-48
2021/07/07 07:51:36;;;;;;;2.33;0.80;;;19.30;99.90;;;;;;5091119;28;20231;-55
2021/07/07 07:54:03;;;;;;;3.37;0.70;;;19.30;99.90;;;;;;5103439;28;20185;-50
2021/07/07 07:56:30;;;;;;;3.07;0.93;;;19.30;99.90;;;;;;5103934;28;20717;-54
2021/07/07 07:58:58;;;;;;;2.93;1.30;;;19.30;99.90;;;;;;5084482;28;20209;-49
2021/07/07 08:01:25;;;;;;;2.83;0.83;;;19.40;99.90;;;;;;5084697;28;20213;-52
2021/07/07 08:03:51;;;;;;;2.33;0.90;;;19.50;99.90;;;;;;5094904;28;20211;-51
2021/07/07 08:06:18;;;;;;;1.77;1.00;;;19.60;99.90;;;;;;5091973;28;20209;-52
2021/07/07 08:08:45;;;;;;;1.63;0.73;;;19.70;99.90;;;;;;5097090;28;20205;-48
2021/07/07 08:11:11;;;;;;;2.03;0.87;;;19.80;99.90;;;;;;5102915;28;20189;-52
2021/07/07 08:13:38;;;;;;;6.13;1.17;;;19.80;99.90;;;;;;5095407;28;20548;-50
2021/07/07 08:16:07;;;;;;;2.30;0.73;;;19.90;99.90;;;;;;5089961;28;20217;-47
2021/07/07 08:18:34;;;;;;;2.13;1.00;;;20.00;99.90;;;;;;5101875;28;20185;-50
2021/07/07 08:21:01;;;;;;;1.50;0.90;;;20.10;99.90;;;;;;5097097;28;20666;-48
2021/07/07 08:23:27;;;;;;;1.03;0.70;;;20.10;99.90;;;;;;5094199;28;20608;-54
2021/07/07 08:25:54;;;;;;;3.73;0.80;;;20.30;99.90;;;;;;5098754;28;20205;-47
2021/07/07 08:28:20;;;;;;;3.07;0.90;;;20.40;99.00;;;;;;5097381;28;20210;-53
2021/07/07 08:30:47;;;;;;;5.37;1.10;;;20.40;98.90;;;;;;5088197;28;24826;-51
2021/07/07 08:33:16;;;;;;;1.87;0.90;;;20.50;98.80;;;;;;5098547;28;20224;-54
2021/07/07 08:35:43;;;;;;;2.87;0.70;;;20.60;99.20;;;;;;5091309;28;20225;-55
2021/07/07 08:38:10;;;;;;;3.23;0.97;;;20.70;98.90;;;;;;5082969;28;20963;-46
2021/07/07 08:40:37;;;;;;;3.77;1.00;;;20.80;98.70;;;;;;5096096;28;20693;-52
2021/07/07 08:43:05;;;;;;;3.63;1.27;;;20.90;98.60;;;;;;5092207;28;20926;-47
2021/07/07 08:45:32;;;;;;;2.47;1.73;;;20.90;98.10;;;;;;5099074;28;20208;-48
2021/07/07 08:47:59;;;;;;;1.47;0.70;;;21.10;97.70;;;;;;5086385;28;20202;-52
2021/07/07 08:50:29;;;;;;;1.50;0.97;;;21.10;96.90;;;;;;5100576;28;20189;-54
2021/07/07 08:52:59;;;;;;;2.07;0.97;;;21.20;96.40;;;;;;5083099;28;20224;-56
2021/07/07 08:55:26;;;;;;;3.53;1.07;;;21.20;96.70;;;;;;5098387;28;20210;-51
2021/07/07 08:57:53;;;;;;;1.83;0.50;;;21.40;96.50;;;;;;5095916;28;20666;-52
2021/07/07 09:00:23;;;;;;;1.57;0.60;;;21.40;95.60;;;;;;5102065;28;20714;-51
2021/07/07 09:02:52;;;;;;;1.33;0.70;;;21.30;95.30;;;;;;5086972;28;20232;-53
2021/07/07 09:05:19;;;;;;;2.37;0.90;;;21.40;95.80;;;;;;5102644;28;20267;-49
2021/07/07 09:07:47;;;;;;;3.90;0.93;;;21.40;95.30;;;;;;5100550;28;20659;-54
2021/07/07 09:10:26;;;;;;;1.63;0.80;;;21.30;95.30;;;;;;5097531;28;20204;-50
2021/07/07 09:12:52;;;;;;;3.40;1.20;;;21.40;95.60;;;;;;5094389;28;20228;-53
2021/07/07 09:15:19;;;;;;;2.73;1.13;;;21.50;95.60;;;;;;5097012;28;20196;-49
2021/07/07 09:17:49;;;;;;;2.93;1.20;;;21.60;95.40;;;;;;5084486;28;20216;-55
2021/07/07 09:20:18;;;;;;;2.10;1.10;;;21.70;95.90;;;;;;5093955;28;20181;-51
2021/07/07 09:22:45;;;;;;;4.40;1.20;;;21.90;96.70;;;;;;5103058;28;20221;-54
2021/07/07 09:25:18;;;;;;;5.55;1.20;;;21.90;95.10;;;;;;5095835;28;21064;-47
2021/07/07 09:27:45;;;;;;;1.90;1.20;;;21.90;94.90;;;;;;5095002;28;20200;-53
2021/07/07 09:30:13;;;;;;;3.53;1.70;;;21.90;95.00;;;;;;5101661;28;20204;-47
2021/07/07 09:32:45;;;;;;;1.92;1.00;;;21.90;95.20;;;;;;5101825;28;20231;-49
2021/07/07 09:35:12;;;;;;;7.55;1.38;;;21.90;95.20;;;;;;5092129;28;20217;-50
2021/07/07 09:37:43;;;;;;;3.57;1.30;;;22.00;95.60;;;;;;5094137;28;20217;-46
2021/07/07 09:40:11;;;;;;;2.65;1.20;;;22.10;95.70;;;;;;5094522;28;20238;-47
2021/07/07 09:42:41;;;;;;;6.00;1.30;;;22.30;95.20;;;;;;5098444;28;20209;-49
2021/07/07 09:45:11;;;;;;;3.33;1.30;;;22.30;94.40;;;;;;5091192;28;20200;-50
2021/07/07 09:47:38;;;;;;;2.37;1.43;;;22.30;93.80;;;;;;5098005;28;20193;-46
2021/07/07 09:50:06;;;;;;;3.33;1.20;;;22.20;94.30;;;;;;5085054;28;20200;-50
2021/07/07 09:52:33;;;;;;;3.50;1.27;;;22.30;94.50;;;;;;5082971;28;20220;-50
2021/07/07 09:55:02;;;;;;;6.57;1.38;;;22.40;94.00;;;;;;5087505;28;20213;-46
2021/07/07 09:57:29;;;;;;;3.33;1.10;;;22.60;93.60;;;;;;5092634;28;20233;-55
2021/07/07 09:59:58;;;;;;;1.98;1.58;;;22.60;93.70;;;;;;5091120;28;20213;-45
2021/07/07 10:02:25;;;;;;;3.10;1.58;;;22.70;93.10;;;;;;5091510;28;20271;-58
2021/07/07 10:04:53;;;;;;;3.15;1.67;;;22.60;92.20;;;;;;5087090;28;20212;-48
2021/07/07 10:07:21;;;;;;;2.95;1.70;;;22.60;91.70;;;;;;5086947;28;20202;-53
2021/07/07 10:09:48;;;;;;;2.53;1.25;;;22.70;91.60;;;;;;5085924;28;20194;-49
2021/07/07 10:12:17;;;;;;;8.57;1.60;;;22.70;91.10;;;;;;5084577;28;20241;-55
2021/07/07 10:14:45;;;;;;;2.13;1.38;;;22.60;91.20;;;;;;5079855;28;20209;-46
2021/07/07 10:17:13;;;;;;;3.03;1.02;;;22.70;91.60;;;;;;5091687;28;20562;-56
2021/07/07 10:19:40;;;;;;;2.55;1.00;;;22.80;91.30;;;;;;5092796;28;20195;-49
2021/07/07 10:22:07;;;;;;;1.55;0.80;;;22.90;91.30;;;;;;5088083;28;20220;-52
2021/07/07 10:24:35;;;;;;;3.00;1.02;;;23.00;91.80;;;;;;5090976;28;20198;-52
2021/07/07 10:27:05;;;;;;;2.33;0.85;;;23.20;91.30;;;;;;5089790;28;20676;-49
2021/07/07 10:29:34;;;;;;;1.10;0.90;;;23.20;90.30;;;;;;5085276;28;20197;-48
2021/07/07 10:32:05;;;;;;;2.33;0.95;;;23.20;90.50;;;;;;5091512;28;20716;-46
2021/07/07 10:34:33;;;;;;;3.45;0.80;;;23.40;90.10;;;;;;5086667;28;20689;-48
2021/07/07 10:37:01;;;;;;;1.75;1.30;;;23.60;90.00;;;;;;5081764;28;20256;-50
2021/07/07 10:39:29;;;;;;;4.68;0.85;;;23.70;88.10;;;;;;5086136;28;20194;-56
2021/07/07 10:41:58;;;;;;;5.50;1.05;;;23.70;87.20;;;;;;5090896;28;20232;-49
2021/07/07 10:44:49;;;;;;;5.30;1.48;;;23.80;86.40;;;;;;5080611;28;20202;-57
2021/07/07 10:47:17;;;;;;;2.13;1.08;;;23.90;84.60;;;;;;5089690;28;20201;-55
2021/07/07 10:49:47;;;;;;;4.80;1.45;;;24.00;83.80;;;;;;5091863;28;20288;-49
2021/07/07 10:52:16;;;;;;;3.35;1.30;;;23.90;81.90;;;;;;5082673;28;20209;-55
2021/07/07 10:54:56;;;;;;;4.10;1.40;;;23.70;82.90;;;;;;5088579;28;20226;-51
2021/07/07 10:57:24;;;;;;;1.67;0.88;;;23.80;81.30;;;;;;5087353;28;20225;-58
2021/07/07 10:59:54;;;;;;;2.63;1.38;;;23.90;83.00;;;;;;5086531;28;20236;-49
2021/07/07 11:02:22;;;;;;;2.53;1.10;;;23.90;81.90;;;;;;5088361;28;20266;-57
2021/07/07 11:04:52;;;;;;;1.00;0.65;;;23.90;80.70;;;;;;5087417;28;20500;-51
2021/07/07 11:07:27;;;;;;;2.33;1.08;;;23.80;80.00;;;;;;5080609;28;20538;-57
2021/07/07 11:09:54;;;;;;;3.30;0.90;;;24.00;81.80;;;;;;5092853;28;20199;-48
2021/07/07 11:12:24;;;;;;;3.33;1.10;;;24.20;80.70;;;;;;5088013;28;20617;-57
2021/07/07 11:15:03;;;;;;;2.65;1.10;;;24.30;79.60;;;;;;5097144;28;20686;-51
2021/07/07 11:17:35;;;;;;;5.35;1.35;;;24.10;78.00;;;;;;5083300;28;20209;-52
2021/07/07 11:20:08;;;;;;;6.18;1.40;;;24.00;81.40;;;;;;5096497;28;20681;-45
2021/07/07 11:22:35;;;;;;;4.40;1.27;;;24.00;82.50;;;;;;5076074;28;20712;-46
2021/07/07 11:25:06;;;;;;;3.00;1.00;;;24.00;81.60;;;;;;5088449;28;21471;-47
2021/07/07 11:27:34;;;;;;;3.53;1.00;;;24.00;79.50;;;;;;5091645;28;20201;-47
2021/07/07 11:30:00;;;;;;;2.35;0.80;;;24.10;80.30;;;;;;5100496;28;20208;-47
2021/07/07 11:32:30;;;;;;;4.82;1.10;;;24.30;79.20;;;;;;5089884;28;20581;-54
2021/07/07 11:35:00;;;;;;;1.83;1.10;;;24.40;78.30;;;;;;5095126;28;20197;-46
2021/07/07 11:37:31;;;;;;;2.85;1.15;;;24.60;77.20;;;;;;5088345;28;20230;-57
2021/07/07 11:40:06;;;;;;;2.92;1.05;;;24.80;76.70;;;;;;5101927;28;20190;-49
2021/07/07 11:42:34;;;;;;;5.93;1.42;;;25.00;72.90;;;;;;5091843;28;20205;-48
2021/07/07 11:45:01;;;;;;;2.65;1.10;;;25.00;75.10;;;;;;5087448;28;20201;-45
2021/07/07 11:47:31;;;;;;;3.38;0.88;;;24.80;75.40;;;;;;5090463;28;20670;-54
2021/07/07 11:50:03;;;;;;;3.47;1.00;;;24.80;75.00;;;;;;5091053;28;20251;-47
2021/07/07 11:52:31;;;;;;;1.50;0.85;;;24.90;73.80;;;;;;5081386;28;20247;-57
2021/07/07 11:54:59;;;;;;;1.65;1.13;;;25.00;73.50;;;;;;5105356;28;20186;-46
2021/07/07 11:57:26;;;;;;;2.72;1.10;;;25.10;71.90;;;;;;5097712;28;20237;-58
2021/07/07 11:59:53;;;;;;;2.30;1.10;;;25.20;72.10;;;;;;5096592;28;20198;-51
2021/07/07 12:02:20;;;;;;;1.70;0.98;;;25.30;72.40;;;;;;5100452;28;20756;-57
2021/07/07 12:04:47;;;;;;;4.60;0.90;;;25.40;72.60;;;;;;5091035;28;20189;-46
2021/07/07 12:07:14;;;;;;;2.03;1.05;;;25.10;69.70;;;;;;5098901;28;20689;-56
2021/07/07 12:09:42;;;;;;;3.38;0.80;;;25.10;72.30;;;;;;5091477;28;20197;-52
2021/07/07 12:12:09;;;;;;;1.83;0.75;;;25.30;71.40;;;;;;5104085;28;20214;-45
2021/07/07 12:14:37;;;;;;;0.95;0.85;;;25.40;68.80;;;;;;5095312;28;20801;-46
2021/07/07 12:17:05;;;;;;;3.00;1.10;;;25.30;67.00;;;;;;5102036;28;20221;-48
2021/07/07 12:19:32;;;;;;;3.65;1.17;;;25.10;67.80;;;;;;5089611;27;20201;-47
2021/07/07 12:22:01;;;;;;;5.25;1.20;;;25.20;69.40;;;;;;5101557;28;20220;-47
2021/07/07 12:24:29;;;;;;;3.10;0.80;;;25.10;68.80;;;;;;5088091;28;20201;-54
2021/07/07 12:27:00;;;;;;;1.88;0.82;;;24.90;68.20;;;;;;5099880;28;20190;-44
2021/07/07 12:29:28;;;;;;;4.43;1.10;;;24.80;68.30;;;;;;5081020;28;20208;-58
2021/07/07 12:31:59;;;;;;;2.13;0.80;;;24.80;69.00;;;;;;5095539;28;20717;-51
2021/07/07 12:34:28;;;;;;;2.92;1.30;;;24.90;69.90;;;;;;5085118;28;20210;-55
2021/07/07 12:36:57;;;;;;;1.20;1.10;;;24.90;69.80;;;;;;5099836;28;20220;-47
2021/07/07 12:39:26;;;;;;;2.30;0.80;;;24.80;68.90;;;;;;5080486;28;20674;-57
2021/07/07 12:42:01;;;;;;;4.82;1.20;;;24.70;68.40;;;;;;5089092;28;20225;-48
2021/07/07 12:44:30;;;;;;;1.08;0.63;;;24.60;67.80;;;;;;5091780;27;20200;-56
2021/07/07 12:47:00;;;;;;;3.83;1.55;;;24.50;67.70;;;;;;5085189;28;20213;-46
2021/07/07 12:49:40;;;;;;;1.88;1.00;;;24.50;68.40;;;;;;5090204;28;20283;-55
2021/07/07 12:52:24;;;;;;;4.38;0.85;;;24.70;69.10;;;;;;5093883;28;20217;-47